Cenka — TCTG5 — position and weather

sailwx.info

Track history (hours):
 
Tides and Currents Weather Stations Pressure Air Temp Water Temp Dewpoint Dewpoint Depression Visibility Wind Speed Wind Dir Waves Ship Positions

Cenka

Last reported at 2016-May-27 15:32 UTC. Time now 2016-May-28 07:56 UTC.
Position N 46°21' E 030°39'.

Length 150 m; draft 4.9 m.

Type: Passenger vessel. MMSI: 271002610.

Date/timePositionNaut miles runAvg speedWind from/ knotsBaromVisibWave heightAir tempDewpointWater temp
2016-May-27 15:32N 46°21' E 030°39'0 0.0
2016-May-27 00:33N 46°21' E 030°39'0 0.0
2016-May-26 23:30N 46°21' E 030°39'0 0.0
2016-May-26 22:33N 46°21' E 030°39'0 0.0
2016-May-26 21:30N 46°21' E 030°39'0 0.0
2016-May-26 20:33N 46°21' E 030°39'0 0.0
2016-May-26 19:33N 46°21' E 030°39'0 0.0
2016-May-26 18:33N 46°21' E 030°39'0 0.1
2016-May-26 17:33N 46°21' E 030°39'7 6.9
2016-May-26 16:33N 46°15' E 030°46'1414.4
2016-May-26 15:33N 46°01' E 030°52'11 0.2
2016-May-24 16:34N 45°51' E 030°55'1413.8
2016-May-24 15:33N 46°04' E 030°50'1413.7
2016-May-24 14:34N 46°17' E 030°45'5 1.3
2016-May-24 10:34N 46°21' E 030°39'0 0.0
2016-May-24 09:34N 46°21' E 030°39'0 0.0
2016-May-24 08:34N 46°21' E 030°39'0 0.0
2016-May-24 07:33N 46°21' E 030°39'0 0.0
2016-May-24 06:33N 46°21' E 030°39'0 0.0
2016-May-24 05:33N 46°21' E 030°39'0 0.0
2016-May-24 04:34N 46°21' E 030°39'0 0.0
2016-May-24 03:34N 46°21' E 030°39'0 0.0
2016-May-24 02:34N 46°21' E 030°39'0 0.0
2016-May-24 01:33N 46°21' E 030°39'0 0.0
2016-May-24 00:33N 46°21' E 030°39'0 0.0
2016-May-23 23:33N 46°21' E 030°39'0 0.0
2016-May-23 22:33N 46°21' E 030°39'0 0.0
2016-May-23 21:34N 46°21' E 030°39'0 0.0
2016-May-23 20:33N 46°21' E 030°39'0 0.0
2016-May-23 15:32N 46°21' E 030°39'0 0.0
2016-May-23 14:34N 46°21' E 030°39'0 0.1
2016-May-23 13:33N 46°21' E 030°39'0 0.0
2016-May-23 12:33N 46°21' E 030°39'0 0.0
2016-May-23 11:33N 46°21' E 030°39'0 0.0
2016-May-23 10:33N 46°21' E 030°39'0 0.0
2016-May-23 09:34N 46°21' E 030°39'0 0.0
2016-May-23 08:34N 46°21' E 030°39'0 0.0
2016-May-23 07:34N 46°21' E 030°39'0 0.0
2016-May-23 06:34N 46°21' E 030°39'0 0.0
2016-May-23 05:34N 46°21' E 030°39'0 0.0
2016-May-23 04:34N 46°21' E 030°39'0 0.0
2016-May-23 03:33N 46°21' E 030°39'0 0.0
2016-May-23 02:33N 46°21' E 030°39'0 0.0
2016-May-23 01:34N 46°21' E 030°39'0 0.0
2016-May-23 00:34N 46°21' E 030°39'0 0.0
2016-May-22 23:34N 46°21' E 030°39'1 0.8
2016-May-22 22:34N 46°20' E 030°39'4 4.2
2016-May-22 21:33N 46°18' E 030°45'9 9.1
2016-May-22 20:33N 46°09' E 030°48'1211.7
2016-May-22 19:33N 45°58' E 030°53'273 8.8
2016-May-21 12:28N 41°27' E 031°47'0 0.0
2016-May-21 11:33N 41°27' E 031°47'9512.9
2016-May-21 04:09N 43°02' E 031°28'913.9
2016-May-21 03:31N 43°11' E 031°27'1614.1
2016-May-21 02:24N 43°26' E 031°24'5814.0
2016-May-20 22:15N 44°24' E 031°12'1014.1
2016-May-20 21:33N 44°33' E 031°10'9114.1
2016-May-20 15:09N 46°03' E 030°51'813.8
2016-May-20 14:34N 46°11' E 030°48'1110.8
2016-May-20 13:32N 46°20' E 030°39'0 0.3
2016-May-20 12:31N 46°21' E 030°39'0 0.0
2016-May-20 11:31N 46°21' E 030°39'0 0.0
2016-May-20 10:31N 46°21' E 030°39'0 0.0
2016-May-20 09:31N 46°21' E 030°39'0 0.0
2016-May-20 08:33N 46°21' E 030°39'0 0.0
2016-May-20 07:33N 46°21' E 030°39'0 0.0
2016-May-20 06:33N 46°21' E 030°39'0 0.0
2016-May-20 05:33N 46°21' E 030°39'0 0.0
2016-May-20 04:32N 46°21' E 030°39'0 0.0
2016-May-20 03:33N 46°21' E 030°39'0 0.0
2016-May-20 02:32N 46°21' E 030°39'0 0.0
2016-May-20 01:31N 46°21' E 030°39'0 0.0
2016-May-20 00:33N 46°21' E 030°39'0 0.0
2016-May-19 23:31N 46°21' E 030°39'0 0.0
2016-May-19 22:31N 46°21' E 030°39'0 0.0
2016-May-19 21:30N 46°21' E 030°39'0 0.0
2016-May-19 20:26N 46°21' E 030°39'0 0.0
2016-May-19 19:33N 46°21' E 030°39'6 6.0
2016-May-19 18:34N 46°17' E 030°45'1514.5
2016-May-19 17:34N 46°03' E 030°51'  
Track history (hours):
 
Tides and Currents Weather Stations Pressure Air Temp Water Temp Dewpoint Dewpoint Depression Visibility Wind Speed Wind Dir Waves Ship Positions

Cenka

Last reported at 2016-May-27 15:32 UTC. Time now 2016-May-28 07:56 UTC.
Position N 46°21' E 030°39'.

Length 150 m; draft 4.9 m.

Type: Passenger vessel. MMSI: 271002610.

Date/timePositionNaut miles runAvg speedWind from/ knotsBaromVisibWave heightAir tempDewpointWater temp
2016-May-27 15:32N 46°21' E 030°39'0 0.0
2016-May-27 00:33N 46°21' E 030°39'0 0.0
2016-May-26 23:30N 46°21' E 030°39'0 0.0
2016-May-26 22:33N 46°21' E 030°39'0 0.0
2016-May-26 21:30N 46°21' E 030°39'0 0.0
2016-May-26 20:33N 46°21' E 030°39'0 0.0
2016-May-26 19:33N 46°21' E 030°39'0 0.0
2016-May-26 18:33N 46°21' E 030°39'0 0.1
2016-May-26 17:33N 46°21' E 030°39'7 6.9
2016-May-26 16:33N 46°15' E 030°46'1414.4
2016-May-26 15:33N 46°01' E 030°52'11 0.2
2016-May-24 16:34N 45°51' E 030°55'1413.8
2016-May-24 15:33N 46°04' E 030°50'1413.7
2016-May-24 14:34N 46°17' E 030°45'5 1.3
2016-May-24 10:34N 46°21' E 030°39'0 0.0
2016-May-24 09:34N 46°21' E 030°39'0 0.0
2016-May-24 08:34N 46°21' E 030°39'0 0.0
2016-May-24 07:33N 46°21' E 030°39'0 0.0
2016-May-24 06:33N 46°21' E 030°39'0 0.0
2016-May-24 05:33N 46°21' E 030°39'0 0.0
2016-May-24 04:34N 46°21' E 030°39'0 0.0
2016-May-24 03:34N 46°21' E 030°39'0 0.0
2016-May-24 02:34N 46°21' E 030°39'0 0.0
2016-May-24 01:33N 46°21' E 030°39'0 0.0
2016-May-24 00:33N 46°21' E 030°39'0 0.0
2016-May-23 23:33N 46°21' E 030°39'0 0.0
2016-May-23 22:33N 46°21' E 030°39'0 0.0
2016-May-23 21:34N 46°21' E 030°39'0 0.0
2016-May-23 20:33N 46°21' E 030°39'0 0.0
2016-May-23 15:32N 46°21' E 030°39'0 0.0
2016-May-23 14:34N 46°21' E 030°39'0 0.1
2016-May-23 13:33N 46°21' E 030°39'0 0.0
2016-May-23 12:33N 46°21' E 030°39'0 0.0
2016-May-23 11:33N 46°21' E 030°39'0 0.0
2016-May-23 10:33N 46°21' E 030°39'0 0.0
2016-May-23 09:34N 46°21' E 030°39'0 0.0
2016-May-23 08:34N 46°21' E 030°39'0 0.0
2016-May-23 07:34N 46°21' E 030°39'0 0.0
2016-May-23 06:34N 46°21' E 030°39'0 0.0
2016-May-23 05:34N 46°21' E 030°39'0 0.0
2016-May-23 04:34N 46°21' E 030°39'0 0.0
2016-May-23 03:33N 46°21' E 030°39'0 0.0
2016-May-23 02:33N 46°21' E 030°39'0 0.0
2016-May-23 01:34N 46°21' E 030°39'0 0.0
2016-May-23 00:34N 46°21' E 030°39'0 0.0
2016-May-22 23:34N 46°21' E 030°39'1 0.8
2016-May-22 22:34N 46°20' E 030°39'4 4.2
2016-May-22 21:33N 46°18' E 030°45'9 9.1
2016-May-22 20:33N 46°09' E 030°48'1211.7
2016-May-22 19:33N 45°58' E 030°53'273 8.8
2016-May-21 12:28N 41°27' E 031°47'0 0.0
2016-May-21 11:33N 41°27' E 031°47'9512.9
2016-May-21 04:09N 43°02' E 031°28'913.9
2016-May-21 03:31N 43°11' E 031°27'1614.1
2016-May-21 02:24N 43°26' E 031°24'5814.0
2016-May-20 22:15N 44°24' E 031°12'1014.1
2016-May-20 21:33N 44°33' E 031°10'9114.1
2016-May-20 15:09N 46°03' E 030°51'813.8
2016-May-20 14:34N 46°11' E 030°48'1110.8
2016-May-20 13:32N 46°20' E 030°39'0 0.3
2016-May-20 12:31N 46°21' E 030°39'0 0.0
2016-May-20 11:31N 46°21' E 030°39'0 0.0
2016-May-20 10:31N 46°21' E 030°39'0 0.0
2016-May-20 09:31N 46°21' E 030°39'0 0.0
2016-May-20 08:33N 46°21' E 030°39'0 0.0
2016-May-20 07:33N 46°21' E 030°39'0 0.0
2016-May-20 06:33N 46°21' E 030°39'0 0.0
2016-May-20 05:33N 46°21' E 030°39'0 0.0
2016-May-20 04:32N 46°21' E 030°39'0 0.0
2016-May-20 03:33N 46°21' E 030°39'0 0.0
2016-May-20 02:32N 46°21' E 030°39'0 0.0
2016-May-20 01:31N 46°21' E 030°39'0 0.0
2016-May-20 00:33N 46°21' E 030°39'0 0.0
2016-May-19 23:31N 46°21' E 030°39'0 0.0
2016-May-19 22:31N 46°21' E 030°39'0 0.0
2016-May-19 21:30N 46°21' E 030°39'0 0.0
2016-May-19 20:26N 46°21' E 030°39'0 0.0
2016-May-19 19:33N 46°21' E 030°39'6 6.0
2016-May-19 18:34N 46°17' E 030°45'1514.5
2016-May-19 17:34N 46°03' E 030°51'  

Dump ship's entire track history